Time;durP1;ratioP1;P1;durP2;ratioP2;P2;SDS_P1;SDS_P2;PMS_P1;PMS_P2;Temp;Humidity;BMP_temperature;BMP_pressure;BME280_temperature;BME280_humidity;BME280_pressure;Samples;Min_cycle;Max_cycle;Signal;HPM_P1;HPM_P2
2021/08/08 00:00:40;;;;;;;3.55;2.92;;;;;;;19.64;68.33;99771.53;5008754;28;20428;-46
2021/08/08 00:03:05;;;;;;;2.97;2.78;;;;;;;19.65;68.33;99767.91;5008146;28;20559;-42
2021/08/08 00:05:31;;;;;;;2.63;2.42;;;;;;;19.66;68.20;99760.72;5009028;28;20026;-43
2021/08/08 00:07:56;;;;;;;2.60;2.40;;;;;;;19.67;68.24;99767.81;5008056;28;20124;-42
2021/08/08 00:10:22;;;;;;;2.65;2.45;;;;;;;19.62;68.13;99760.06;5006356;28;20017;-42
2021/08/08 00:12:47;;;;;;;2.83;2.35;;;;;;;19.65;68.23;99753.66;5006807;28;20040;-46
2021/08/08 00:15:12;;;;;;;2.17;2.03;;;;;;;19.66;68.26;99755.38;5008874;28;20148;-49
2021/08/08 00:17:38;;;;;;;2.95;2.67;;;;;;;19.66;68.13;99763.41;5007096;28;20026;-43
2021/08/08 00:20:07;;;;;;;2.58;2.38;;;;;;;19.66;68.16;99771.44;5007692;28;20022;-44
2021/08/08 00:22:36;;;;;;;2.45;2.25;;;;;;;19.65;68.19;99761.69;5004923;28;20038;-42
2021/08/08 00:25:03;;;;;;;2.25;2.13;;;;;;;19.61;68.16;99767.22;5009208;28;20112;-43
2021/08/08 00:27:28;;;;;;;2.53;2.30;;;;;;;19.61;68.33;99774.41;5006760;28;20022;-42
2021/08/08 00:29:54;;;;;;;2.67;2.20;;;;;;;19.63;68.24;99777.00;5008483;28;20026;-43
2021/08/08 00:32:19;;;;;;;3.00;2.40;;;;;;;19.63;68.25;99774.31;5006564;28;20030;-42
2021/08/08 00:34:44;;;;;;;2.40;2.20;;;;;;;19.61;68.26;99772.56;5007772;28;20041;-42
2021/08/08 00:37:09;;;;;;;2.67;2.47;;;;;;;19.60;68.14;99768.19;5008883;28;20030;-42
2021/08/08 00:39:36;;;;;;;2.85;2.17;;;;;;;19.58;68.15;99761.22;5007609;28;20635;-42
2021/08/08 00:42:01;;;;;;;2.70;2.50;;;;;;;19.60;68.22;99786.91;5005604;28;20501;-46
2021/08/08 00:44:26;;;;;;;2.30;2.10;;;;;;;19.60;68.16;99780.69;5008495;28;20130;-43
2021/08/08 00:46:52;;;;;;;2.75;2.50;;;;;;;19.59;68.18;99784.34;5008811;28;20184;-43
2021/08/08 00:49:17;;;;;;;2.92;2.42;;;;;;;19.58;68.12;99786.13;5008640;28;20543;-42
2021/08/08 00:51:46;;;;;;;2.38;2.22;;;;;;;19.60;68.23;99783.38;5006546;28;20042;-44
2021/08/08 00:54:12;;;;;;;2.78;2.38;;;;;;;19.59;68.01;99787.88;5007728;28;20025;-42
2021/08/08 00:56:38;;;;;;;2.30;2.20;;;;;;;19.59;68.27;99787.88;5008379;28;20113;-43
2021/08/08 00:59:09;;;;;;;2.50;2.30;;;;;;;19.57;68.19;99797.78;5006402;28;20052;-42
2021/08/08 01:01:36;;;;;;;2.45;2.25;;;;;;;19.58;68.17;99802.19;5003806;28;20026;-42
2021/08/08 01:04:03;;;;;;;2.28;2.08;;;;;;;19.58;68.13;99798.66;5004786;28;20036;-43
2021/08/08 01:06:37;;;;;;;2.67;2.45;;;;;;;19.60;67.97;99800.28;5005878;28;20026;-42
2021/08/08 01:09:05;;;;;;;2.17;1.98;;;;;;;19.58;68.04;99802.19;5006071;28;20049;-46
2021/08/08 01:11:31;;;;;;;2.17;2.08;;;;;;;19.60;68.05;99799.41;5005048;28;20030;-42
2021/08/08 01:13:57;;;;;;;4.15;2.38;;;;;;;19.58;67.94;99801.34;5004844;28;20026;-43
2021/08/08 01:16:23;;;;;;;2.58;2.38;;;;;;;19.57;67.84;99800.47;5007400;28;20481;-42
2021/08/08 01:18:48;;;;;;;2.95;2.65;;;;;;;19.56;68.01;99796.06;5008884;28;20033;-43
2021/08/08 01:21:14;;;;;;;2.78;2.55;;;;;;;19.55;67.93;99791.69;5005844;28;20751;-43
2021/08/08 01:23:41;;;;;;;2.95;2.75;;;;;;;19.57;67.97;99794.28;5010553;28;20030;-47
2021/08/08 01:26:09;;;;;;;2.75;2.50;;;;;;;19.54;68.03;99799.81;5012397;28;20481;-43
2021/08/08 01:28:36;;;;;;;3.30;2.70;;;;;;;19.49;67.95;99794.72;5010818;28;20026;-43
2021/08/08 01:31:01;;;;;;;2.63;2.42;;;;;;;19.51;68.01;99800.84;5008825;28;20026;-42
2021/08/08 01:33:26;;;;;;;2.65;2.45;;;;;;;19.52;68.00;99801.69;5010140;28;20393;-43
2021/08/08 01:35:52;;;;;;;3.08;2.60;;;;;;;19.49;68.15;99802.75;5011574;28;20593;-43
2021/08/08 01:38:20;;;;;;;2.80;2.60;;;;;;;19.47;68.08;99805.50;5011894;28;20018;-42
2021/08/08 01:40:55;;;;;;;3.65;2.83;;;;;;;19.49;68.17;99802.75;5010408;28;20017;-47
2021/08/08 01:43:32;;;;;;;3.05;2.78;;;;;;;19.47;68.03;99810.88;5009723;28;20040;-43
2021/08/08 01:46:06;;;;;;;2.88;2.55;;;;;;;19.46;67.95;99802.94;5007434;28;20060;-43
2021/08/08 01:48:32;;;;;;;2.78;2.58;;;;;;;19.49;67.92;99826.81;5011622;28;20022;-43
2021/08/08 01:51:00;;;;;;;2.72;2.53;;;;;;;19.43;67.89;99813.81;5010248;28;20021;-46
2021/08/08 01:53:26;;;;;;;2.92;2.72;;;;;;;19.46;68.08;99817.16;5004867;28;20080;-45
2021/08/08 01:55:52;;;;;;;2.60;2.40;;;;;;;19.44;67.98;99823.56;5009212;28;20033;-44
2021/08/08 01:58:17;;;;;;;2.88;2.60;;;;;;;19.44;68.13;99823.56;5008984;28;20021;-43
2021/08/08 02:00:43;;;;;;;4.18;3.83;;;;;;;19.44;67.93;99826.25;5007656;28;20026;-42
2021/08/08 02:03:09;;;;;;;3.05;2.60;;;;;;;19.45;67.98;99833.31;5009319;28;20022;-47
2021/08/08 02:05:34;;;;;;;3.20;3.00;;;;;;;19.45;67.94;99833.31;5008024;28;20023;-43
2021/08/08 02:08:00;;;;;;;2.92;2.40;;;;;;;19.47;67.95;99828.72;5011463;28;20072;-43
2021/08/08 02:10:34;;;;;;;2.80;2.60;;;;;;;19.49;67.92;99829.50;5010027;28;20018;-45
2021/08/08 02:13:00;;;;;;;2.80;2.60;;;;;;;19.47;67.85;99831.38;5008880;28;20029;-45
2021/08/08 02:15:25;;;;;;;4.47;3.05;;;;;;;19.45;68.09;99826.16;5011114;28;20037;-43
2021/08/08 02:17:53;;;;;;;2.90;2.70;;;;;;;19.46;67.66;99830.53;5011459;28;20029;-46
2021/08/08 02:20:19;;;;;;;3.42;3.10;;;;;;;19.49;67.67;99830.38;5010800;28;20025;-43
2021/08/08 02:22:46;;;;;;;3.53;2.85;;;;;;;19.47;67.91;99832.25;5011017;28;20120;-43
2021/08/08 02:25:14;;;;;;;2.72;2.53;;;;;;;19.52;67.51;99837.34;5009496;28;20025;-43
2021/08/08 02:27:40;;;;;;;3.15;2.92;;;;;;;19.49;67.61;99845.53;5011530;28;20033;-43
2021/08/08 02:30:07;;;;;;;3.55;2.88;;;;;;;19.47;67.72;99853.66;5008293;28;21119;-42
2021/08/08 02:32:32;;;;;;;4.10;3.30;;;;;;;19.48;67.85;99854.53;5007766;28;20037;-45
2021/08/08 02:34:58;;;;;;;3.35;2.97;;;;;;;19.49;67.67;99856.22;5010497;28;20041;-43
2021/08/08 02:37:23;;;;;;;3.53;3.00;;;;;;;19.47;68.01;99861.66;5009465;28;20018;-44
2021/08/08 02:39:48;;;;;;;2.72;2.50;;;;;;;19.46;67.68;99857.28;5010464;28;20037;-43
2021/08/08 02:42:13;;;;;;;3.78;2.85;;;;;;;19.47;67.66;99848.31;5007859;28;20026;-43
2021/08/08 02:44:39;;;;;;;4.13;3.10;;;;;;;19.41;67.79;99848.66;5010166;28;20037;-44
2021/08/08 02:47:04;;;;;;;3.00;2.80;;;;;;;19.40;67.75;99857.63;5010287;28;20069;-43
2021/08/08 02:49:30;;;;;;;3.22;2.92;;;;;;;19.41;67.80;99859.34;5009255;28;20044;-43
2021/08/08 02:51:56;;;;;;;4.13;2.88;;;;;;;19.41;67.84;99848.66;5010546;28;20385;-42
2021/08/08 02:54:30;;;;;;;3.42;3.08;;;;;;;19.40;67.73;99862.13;5006599;28;20048;-44
2021/08/08 02:56:56;;;;;;;3.42;2.60;;;;;;;19.37;67.90;99857.81;5010090;28;20045;-44
2021/08/08 02:59:24;;;;;;;5.13;2.72;;;;;;;19.37;67.87;99863.16;5010713;28;20049;-42
2021/08/08 03:01:50;;;;;;;3.35;3.03;;;;;;;19.36;67.90;99861.44;5043208;22;20048;-48
2021/08/08 03:04:15;;;;;;;3.00;2.80;;;;;;;19.34;67.81;99850.84;5063568;28;20025;-46
2021/08/08 03:06:45;;;;;;;3.38;3.03;;;;;;;19.34;67.91;99855.34;5070722;28;20031;-47
2021/08/08 03:09:10;;;;;;;3.60;3.30;;;;;;;19.32;67.91;99858.09;5070028;28;20024;-46
2021/08/08 03:11:36;;;;;;;3.03;2.80;;;;;;;19.30;68.03;99865.34;5070155;28;20024;-47
2021/08/08 03:14:01;;;;;;;3.13;2.80;;;;;;;19.32;67.92;99871.47;5063100;28;20032;-49
2021/08/08 03:16:26;;;;;;;3.17;2.92;;;;;;;19.31;67.97;99879.59;5062356;28;20039;-47
2021/08/08 03:18:52;;;;;;;3.70;3.40;;;;;;;19.30;67.95;99868.00;5062471;28;20020;-48
2021/08/08 03:21:17;;;;;;;3.00;2.80;;;;;;;19.34;67.91;99874.91;5063329;28;20077;-48
2021/08/08 03:23:42;;;;;;;4.38;3.20;;;;;;;19.30;67.83;99881.38;5061965;28;20082;-48
2021/08/08 03:26:08;;;;;;;3.30;3.00;;;;;;;19.32;67.85;99882.16;5063389;28;20028;-47
2021/08/08 03:28:33;;;;;;;3.50;2.92;;;;;;;19.31;67.81;99880.41;5056700;28;20020;-49
2021/08/08 03:30:58;;;;;;;2.95;2.72;;;;;;;19.28;67.85;99875.28;5058893;28;20025;-46
2021/08/08 03:33:23;;;;;;;3.15;2.95;;;;;;;19.28;67.90;99885.97;5064488;28;20020;-47
2021/08/08 03:35:49;;;;;;;3.00;2.80;;;;;;;19.26;67.94;99882.50;5059457;28;20048;-48
2021/08/08 03:38:17;;;;;;;3.50;3.20;;;;;;;19.26;67.91;99887.00;5063048;28;20058;-47
2021/08/08 03:40:45;;;;;;;3.45;2.92;;;;;;;19.26;67.86;99895.88;5064307;28;20365;-47
2021/08/08 03:43:10;;;;;;;3.85;2.60;;;;;;;19.25;68.13;99899.50;5063467;28;20486;-48
2021/08/08 03:45:36;;;;;;;3.55;3.25;;;;;;;19.23;68.06;99899.59;5063359;28;20020;-47
2021/08/08 03:48:01;;;;;;;3.38;3.17;;;;;;;19.24;68.19;99908.44;5062346;28;20044;-47
2021/08/08 03:50:26;;;;;;;2.80;2.60;;;;;;;19.26;67.84;99914.59;5062181;28;20064;-47
2021/08/08 03:52:52;;;;;;;2.90;2.70;;;;;;;19.25;67.86;99912.88;5068121;28;20059;-47
2021/08/08 03:55:20;;;;;;;4.00;2.78;;;;;;;19.22;67.97;99907.69;5064962;28;20438;-47
2021/08/08 03:57:45;;;;;;;2.97;2.75;;;;;;;19.21;68.19;99920.19;5064365;28;20017;-49
2021/08/08 04:00:13;;;;;;;4.55;2.80;;;;;;;19.20;68.08;99920.28;5059412;28;20021;-47
2021/08/08 04:02:39;;;;;;;2.90;2.70;;;;;;;19.22;68.10;99926.41;5062853;28;20024;-47
2021/08/08 04:05:04;;;;;;;2.97;2.70;;;;;;;19.22;68.12;99926.41;5053607;28;20077;-47
2021/08/08 04:07:30;;;;;;;2.85;2.65;;;;;;;19.20;68.04;99920.28;5059790;28;20021;-46
2021/08/08 04:09:55;;;;;;;3.42;2.92;;;;;;;19.20;68.00;99930.97;5058714;28;20029;-47
2021/08/08 04:12:20;;;;;;;3.25;2.95;;;;;;;19.19;68.22;99945.28;5065497;28;20036;-50
2021/08/08 04:14:48;;;;;;;2.92;2.50;;;;;;;19.21;68.15;99956.78;5060662;28;20032;-48
2021/08/08 04:17:14;;;;;;;3.67;2.80;;;;;;;19.19;68.11;99953.31;5059935;28;20024;-47
2021/08/08 04:19:39;;;;;;;3.40;3.10;;;;;;;19.17;68.09;99953.41;5065154;28;20082;-48
2021/08/08 04:22:05;;;;;;;2.63;2.42;;;;;;;19.16;68.24;99959.69;5061187;28;20363;-48
2021/08/08 04:24:30;;;;;;;3.03;2.72;;;;;;;19.20;68.18;99957.69;5064893;28;20056;-50
2021/08/08 04:26:55;;;;;;;3.08;2.22;;;;;;;19.17;68.07;99965.91;5061160;28;20039;-47
2021/08/08 04:29:21;;;;;;;4.32;3.03;;;;;;;19.14;68.13;99961.56;5061257;28;20016;-47
2021/08/08 04:31:53;;;;;;;2.75;2.28;;;;;;;19.16;68.06;99965.03;5063234;28;20060;-48
2021/08/08 04:34:19;;;;;;;2.50;2.30;;;;;;;19.14;68.10;99958.91;5060490;28;20031;-48
2021/08/08 04:36:44;;;;;;;2.70;2.50;;;;;;;19.14;68.07;99974.09;5057745;28;20017;-49
2021/08/08 04:39:31;;;;;;;2.90;2.70;;;;;;;19.12;68.21;99967.97;5063060;28;20501;-47
2021/08/08 04:41:56;;;;;;;2.88;2.47;;;;;;;19.17;68.00;99973.94;5060358;28;20628;-47
2021/08/08 04:44:22;;;;;;;2.67;2.47;;;;;;;19.15;68.21;99967.81;5057701;28;20104;-47
2021/08/08 04:46:54;;;;;;;2.33;2.22;;;;;;;19.14;68.09;99979.44;5047934;28;20032;-47
2021/08/08 04:49:19;;;;;;;2.60;2.40;;;;;;;19.13;68.14;99983.03;5061168;28;20016;-46
2021/08/08 04:51:44;;;;;;;2.05;1.88;;;;;;;19.12;68.04;99986.66;5053921;28;20029;-48
2021/08/08 04:54:12;;;;;;;3.25;2.65;;;;;;;19.09;68.19;99982.38;5057952;28;20055;-46
2021/08/08 04:56:37;;;;;;;2.80;2.60;;;;;;;19.13;68.05;99988.38;5061421;28;21636;-47
2021/08/08 04:59:03;;;;;;;2.63;2.42;;;;;;;19.09;68.21;99988.59;5066772;28;20021;-47
2021/08/08 05:01:29;;;;;;;2.58;2.38;;;;;;;19.10;67.80;99995.66;5063330;28;20023;-49
2021/08/08 05:03:55;;;;;;;2.47;2.28;;;;;;;19.10;67.97;99994.78;5062439;28;20053;-47
2021/08/08 05:06:20;;;;;;;3.05;2.78;;;;;;;19.10;67.96;99998.31;5060823;28;20052;-46
2021/08/08 05:08:48;;;;;;;2.33;2.22;;;;;;;19.09;68.03;99993.94;5064537;28;20028;-48
2021/08/08 05:11:18;;;;;;;3.08;2.83;;;;;;;19.10;67.94;100000.13;5069015;28;20044;-47
2021/08/08 05:13:43;;;;;;;2.80;2.50;;;;;;;19.09;68.17;99998.41;5066540;28;20492;-49
2021/08/08 05:16:11;;;;;;;2.72;2.45;;;;;;;19.08;68.06;99997.53;5065183;28;20074;-48
2021/08/08 05:18:36;;;;;;;2.47;2.28;;;;;;;19.08;68.04;99997.53;5058426;28;20028;-47
2021/08/08 05:21:01;;;;;;;3.60;2.40;;;;;;;19.08;68.02;100002.88;5063430;28;20021;-49
2021/08/08 05:23:30;;;;;;;3.20;2.90;;;;;;;19.08;68.18;100002.88;5061001;28;20029;-47
2021/08/08 05:25:59;;;;;;;2.92;2.60;;;;;;;19.07;68.14;100003.81;5060516;28;20107;-46
2021/08/08 05:28:25;;;;;;;2.45;2.10;;;;;;;19.04;68.09;100011.97;5064288;28;20040;-47
2021/08/08 05:30:50;;;;;;;2.40;2.20;;;;;;;19.06;68.14;100003.88;5048435;28;20017;-48
2021/08/08 05:33:16;;;;;;;2.22;2.13;;;;;;;19.06;68.18;100003.88;5066763;28;20039;-48
2021/08/08 05:35:41;;;;;;;2.20;2.00;;;;;;;19.06;68.17;100007.47;5063963;28;20025;-51
2021/08/08 05:39:00;;;;;;;2.60;2.40;;;;;;;19.06;68.18;100006.56;5061787;28;20041;-46
2021/08/08 05:41:26;;;;;;;2.45;2.25;;;;;;;19.06;67.94;100015.47;5059719;28;20027;-46
2021/08/08 05:43:51;;;;;;;2.53;2.33;;;;;;;19.05;68.09;100011.06;5061185;28;20033;-47
2021/08/08 05:46:17;;;;;;;2.63;2.25;;;;;;;19.04;68.28;100017.31;5062604;28;20052;-49
2021/08/08 05:48:42;;;;;;;2.60;2.40;;;;;;;19.02;68.33;100029.91;5060082;28;20037;-47
2021/08/08 05:51:07;;;;;;;2.30;2.10;;;;;;;19.04;68.18;100022.66;5065099;28;20016;-47
2021/08/08 05:53:33;;;;;;;2.30;2.20;;;;;;;19.07;68.11;100019.00;5063355;28;20028;-46
2021/08/08 05:55:58;;;;;;;2.50;2.28;;;;;;;19.03;68.26;100036.97;5059112;28;20021;-47
2021/08/08 05:58:23;;;;;;;2.60;2.40;;;;;;;19.02;68.31;100031.72;5060696;28;20032;-48
2021/08/08 06:00:49;;;;;;;2.55;2.35;;;;;;;18.98;68.17;100039.91;5062249;28;20017;-48
2021/08/08 06:03:14;;;;;;;2.42;2.13;;;;;;;19.00;68.71;100041.66;5062420;28;20407;-48
2021/08/08 06:05:41;;;;;;;2.90;2.70;;;;;;;19.05;68.22;100044.91;5061320;28;20039;-48
2021/08/08 06:08:21;;;;;;;2.10;2.00;;;;;;;19.01;68.35;100052.25;5061360;28;20020;-47
2021/08/08 06:10:47;;;;;;;2.50;2.30;;;;;;;19.00;68.42;100053.19;5061924;28;20028;-49
2021/08/08 06:13:12;;;;;;;2.47;2.28;;;;;;;19.04;68.21;100049.38;5063510;28;20082;-53
2021/08/08 06:15:37;;;;;;;2.30;2.20;;;;;;;19.00;68.28;100052.34;5045366;28;20067;-47
2021/08/08 06:18:03;;;;;;;2.67;2.47;;;;;;;18.97;68.47;100056.88;5058821;28;20028;-49
2021/08/08 06:20:34;;;;;;;2.13;2.03;;;;;;;18.96;68.32;100051.63;5057449;28;20388;-47
2021/08/08 06:23:05;;;;;;;2.25;2.15;;;;;;;19.01;68.44;100070.09;5059813;28;20595;-46
2021/08/08 06:25:33;;;;;;;2.90;2.60;;;;;;;19.00;68.41;100081.72;5063923;28;20025;-47
2021/08/08 06:27:59;;;;;;;2.30;2.17;;;;;;;19.01;68.53;100091.47;5066761;28;20485;-47
2021/08/08 06:30:24;;;;;;;2.70;2.50;;;;;;;19.01;68.21;100096.81;5066434;28;20048;-48
2021/08/08 06:32:49;;;;;;;2.22;2.03;;;;;;;18.96;68.49;100095.25;5056902;28;20033;-47
2021/08/08 06:35:14;;;;;;;2.70;2.10;;;;;;;18.97;68.43;100096.09;5057993;28;20021;-48
2021/08/08 06:37:43;;;;;;;3.85;2.10;;;;;;;18.98;68.59;100097.84;5063692;28;20029;-47
2021/08/08 06:40:13;;;;;;;1.98;1.88;;;;;;;19.00;68.23;100106.63;5058499;28;20020;-48
2021/08/08 06:42:38;;;;;;;2.22;2.10;;;;;;;18.98;68.39;100113.88;5058791;28;20032;-48
2021/08/08 06:45:07;;;;;;;1.92;1.83;;;;;;;19.01;68.26;100112.84;5062701;28;20028;-47
2021/08/08 06:47:32;;;;;;;2.28;2.15;;;;;;;18.99;68.17;100115.59;5060707;28;20037;-47
2021/08/08 06:49:57;;;;;;;2.20;2.10;;;;;;;18.97;68.20;100112.13;5064169;28;20094;-47
2021/08/08 06:52:23;;;;;;;2.30;2.10;;;;;;;18.98;68.23;100125.41;5060657;28;20107;-50
2021/08/08 06:55:00;;;;;;;2.47;2.28;;;;;;;18.96;68.71;100121.09;5058714;28;20441;-48
2021/08/08 06:57:27;;;;;;;2.67;2.47;;;;;;;18.97;68.23;100125.47;5063123;28;20073;-47
2021/08/08 06:59:52;;;;;;;2.28;2.03;;;;;;;18.96;68.42;100116.63;5064146;28;20387;-47
2021/08/08 07:02:18;;;;;;;3.55;2.28;;;;;;;18.94;68.49;100109.63;5061571;28;20016;-48
2021/08/08 07:04:43;;;;;;;2.33;2.17;;;;;;;18.95;68.36;100108.69;5055950;28;20020;-46
2021/08/08 07:07:12;;;;;;;2.03;1.92;;;;;;;18.94;68.41;100118.50;5062726;28;20132;-47
2021/08/08 07:09:43;;;;;;;2.30;2.10;;;;;;;18.93;68.36;100126.59;5063428;28;20024;-46
2021/08/08 07:12:09;;;;;;;2.20;2.10;;;;;;;18.93;68.26;100134.59;5062395;28;20024;-47
2021/08/08 07:15:30;;;;;;;2.38;2.22;;;;;;;18.91;68.31;100139.19;5058571;28;20079;-47
2021/08/08 07:17:58;;;;;;;2.78;2.58;;;;;;;18.92;67.95;100136.44;5058750;28;20082;-46
2021/08/08 07:20:30;;;;;;;2.47;2.33;;;;;;;18.94;68.20;100136.38;5043172;28;20032;-47
2021/08/08 07:22:55;;;;;;;3.42;3.13;;;;;;;18.89;67.88;100141.94;5057255;28;20107;-47
2021/08/08 07:25:21;;;;;;;2.65;2.50;;;;;;;18.92;67.87;100141.78;5059977;28;20057;-47
2021/08/08 07:27:47;;;;;;;2.63;2.10;;;;;;;18.92;67.70;100135.56;5059643;28;20388;-49
2021/08/08 07:30:12;;;;;;;2.30;2.10;;;;;;;18.94;67.69;100141.69;5061705;28;20074;-53
2021/08/08 07:32:37;;;;;;;2.15;2.05;;;;;;;18.94;67.63;100133.69;5051522;28;20029;-48
2021/08/08 07:35:03;;;;;;;2.35;2.15;;;;;;;18.96;67.73;100131.78;5057828;28;20060;-48
2021/08/08 07:37:28;;;;;;;2.50;2.30;;;;;;;18.92;67.83;100136.44;5059412;28;20062;-47
2021/08/08 07:39:54;;;;;;;2.65;2.45;;;;;;;18.93;67.54;100134.59;5063517;28;20032;-48
2021/08/08 07:42:19;;;;;;;3.45;2.13;;;;;;;18.96;67.58;100147.81;5056942;28;20028;-52
2021/08/08 07:44:44;;;;;;;2.47;2.28;;;;;;;18.93;67.39;100154.19;5053901;28;20119;-47
2021/08/08 07:47:10;;;;;;;2.70;2.50;;;;;;;18.93;67.10;100151.50;5058128;28;20024;-47
2021/08/08 07:49:35;;;;;;;2.42;2.28;;;;;;;18.86;67.03;100147.44;5062599;28;20029;-48
2021/08/08 07:52:00;;;;;;;2.17;2.08;;;;;;;18.96;67.31;100158.50;5054899;28;20101;-49
2021/08/08 07:54:26;;;;;;;2.47;2.35;;;;;;;18.97;67.09;100160.22;5055290;28;20028;-47
2021/08/08 07:56:51;;;;;;;2.40;2.20;;;;;;;18.96;67.24;100163.84;5059571;28;20057;-47
2021/08/08 07:59:16;;;;;;;2.92;2.65;;;;;;;18.97;67.14;100165.56;5061781;28;20028;-48
2021/08/08 08:01:42;;;;;;;2.80;2.58;;;;;;;18.95;67.04;100170.16;5057358;28;20025;-49
2021/08/08 08:04:08;;;;;;;2.92;2.58;;;;;;;18.88;67.34;100161.59;5058320;28;20472;-49
2021/08/08 08:06:33;;;;;;;2.88;2.67;;;;;;;18.93;66.93;100164.00;5060813;28;20040;-48
2021/08/08 08:09:01;;;;;;;2.38;2.25;;;;;;;18.93;66.86;100159.53;5060816;28;20037;-47
2021/08/08 08:11:27;;;;;;;2.63;2.50;;;;;;;18.91;67.23;100172.09;5059354;28;20031;-47
2021/08/08 08:13:52;;;;;;;2.35;2.17;;;;;;;18.92;67.15;100168.50;5059654;28;20032;-47
2021/08/08 08:16:17;;;;;;;3.25;2.28;;;;;;;18.90;67.20;100169.53;5059119;28;20031;-47
2021/08/08 08:18:43;;;;;;;2.22;2.08;;;;;;;18.91;67.19;100172.09;5063848;28;20055;-47
2021/08/08 08:21:11;;;;;;;2.22;2.05;;;;;;;18.92;67.46;100168.50;5056927;28;20024;-47
2021/08/08 08:23:48;;;;;;;2.97;2.70;;;;;;;18.90;67.16;100188.22;5060709;28;20023;-47
2021/08/08 08:26:16;;;;;;;8.70;2.40;;;;;;;19.05;66.69;100183.88;5061573;28;20055;-47
2021/08/08 08:28:41;;;;;;;3.60;1.88;;;;;;;19.12;66.37;100181.78;5059223;28;20036;-49
2021/08/08 08:31:10;;;;;;;2.42;2.20;;;;;;;19.17;65.81;100174.41;5064357;28;20423;-47
2021/08/08 08:33:36;;;;;;;4.05;2.20;;;;;;;19.23;65.25;100184.75;5048453;28;20031;-54
2021/08/08 08:36:03;;;;;;;6.03;2.40;;;;;;;19.25;64.17;100190.00;5063775;28;20406;-49
2021/08/08 08:38:31;;;;;;;5.72;1.98;;;;;;;19.27;64.03;100178.28;5060029;28;20070;-47
2021/08/08 08:41:01;;;;;;;2.88;2.03;;;;;;;19.35;64.05;100192.09;5065388;28;20099;-47
2021/08/08 08:43:26;;;;;;;1.92;1.83;;;;;;;19.42;63.67;100183.75;5045382;28;20020;-47
2021/08/08 08:45:55;;;;;;;4.10;2.40;;;;;;;19.31;64.13;100184.34;5045351;28;20391;-51
2021/08/08 08:48:32;;;;;;;4.32;2.22;;;;;;;19.18;65.51;100190.31;5067294;28;20071;-48
2021/08/08 08:50:58;;;;;;;2.67;2.47;;;;;;;19.14;65.33;100195.94;5059953;28;20099;-49
2021/08/08 08:53:23;;;;;;;2.97;2.28;;;;;;;19.13;65.64;100205.75;5051112;28;20383;-48
2021/08/08 08:55:50;;;;;;;4.03;2.33;;;;;;;19.12;65.90;100200.47;5060185;28;20488;-46
2021/08/08 08:58:16;;;;;;;3.50;2.13;;;;;;;19.09;65.78;100204.19;5063752;28;20031;-48
2021/08/08 09:00:41;;;;;;;2.85;2.65;;;;;;;19.07;65.74;100211.41;5065283;28;20034;-47
2021/08/08 09:03:07;;;;;;;2.58;2.20;;;;;;;19.05;65.62;100221.28;5067628;22;20044;-47
2021/08/08 09:05:32;;;;;;;4.32;2.30;;;;;;;19.01;65.83;100220.59;5043768;28;20048;-46
2021/08/08 09:07:57;;;;;;;2.60;2.40;;;;;;;19.01;65.90;100219.72;5040305;28;20033;-47
2021/08/08 09:10:23;;;;;;;2.78;2.20;;;;;;;19.00;65.61;100224.19;5043034;28;20037;-45
2021/08/08 09:13:00;;;;;;;3.78;2.58;;;;;;;19.01;65.92;100219.72;5044816;28;20033;-46
2021/08/08 09:15:39;;;;;;;3.35;2.67;;;;;;;19.01;66.13;100230.41;5039368;28;20033;-47
2021/08/08 09:18:12;;;;;;;2.63;2.42;;;;;;;18.99;65.97;100233.16;5045306;28;20364;-47
2021/08/08 09:20:37;;;;;;;2.90;2.70;;;;;;;18.98;65.54;100228.78;5041887;28;20021;-47
2021/08/08 09:23:03;;;;;;;2.92;2.72;;;;;;;18.96;65.84;100230.66;5047928;28;20115;-47
2021/08/08 09:25:28;;;;;;;3.00;2.80;;;;;;;18.99;65.89;100230.50;5042660;28;20048;-46
2021/08/08 09:28:08;;;;;;;3.22;2.95;;;;;;;18.97;66.22;100229.69;5043437;28;20115;-46
2021/08/08 09:30:36;;;;;;;3.03;2.83;;;;;;;18.96;66.00;100228.84;5038509;28;20043;-47
2021/08/08 09:33:02;;;;;;;2.30;2.10;;;;;;;18.98;66.40;100226.94;5043839;28;20025;-47
2021/08/08 09:35:36;;;;;;;2.88;2.60;;;;;;;18.98;66.30;100234.13;5042268;28;20025;-46
2021/08/08 09:38:04;;;;;;;2.80;2.50;;;;;;;18.98;66.22;100239.47;5047569;28;20045;-47
2021/08/08 09:40:31;;;;;;;3.15;2.85;;;;;;;18.98;66.23;100239.47;5042952;28;20047;-46
2021/08/08 09:42:58;;;;;;;2.63;2.40;;;;;;;18.96;66.43;100225.31;5022330;28;20497;-47
2021/08/08 09:45:37;;;;;;;2.70;2.50;;;;;;;18.97;66.28;100227.03;5041385;28;20086;-46
2021/08/08 09:48:04;;;;;;;2.80;2.50;;;;;;;18.97;66.51;100235.03;5040113;28;21467;-47
2021/08/08 09:50:30;;;;;;;3.40;2.72;;;;;;;18.98;66.55;100236.78;5042281;28;20057;-47
2021/08/08 09:53:01;;;;;;;3.63;3.15;;;;;;;18.96;66.51;100227.97;5045261;28;20028;-47
2021/08/08 09:55:39;;;;;;;3.00;2.80;;;;;;;18.98;66.79;100247.47;5044922;28;20104;-47
2021/08/08 09:58:15;;;;;;;3.65;2.47;;;;;;;18.97;66.62;100240.38;5042751;28;20280;-47
2021/08/08 10:00:43;;;;;;;4.13;2.67;;;;;;;18.97;66.87;100251.06;5043425;28;20033;-47
2021/08/08 10:03:11;;;;;;;3.08;2.88;;;;;;;18.95;66.97;100253.84;5042679;28;20060;-47
2021/08/08 10:05:39;;;;;;;2.92;2.72;;;;;;;18.97;66.95;100256.41;5041007;28;20430;-47
2021/08/08 10:08:15;;;;;;;3.42;3.10;;;;;;;18.97;66.99;100259.09;5035557;28;20155;-46
2021/08/08 10:10:43;;;;;;;2.55;2.35;;;;;;;19.03;66.45;100263.25;5041557;28;20078;-47
2021/08/08 10:13:24;;;;;;;2.33;2.22;;;;;;;19.00;66.24;100253.59;5041768;28;20032;-47
2021/08/08 10:15:51;;;;;;;3.13;2.88;;;;;;;18.99;66.58;100262.56;5037694;28;20029;-47
2021/08/08 10:18:17;;;;;;;4.05;2.70;;;;;;;18.98;66.85;100258.16;5046599;28;20025;-48
2021/08/08 10:20:43;;;;;;;2.83;2.53;;;;;;;18.97;66.64;100264.44;5043116;28;20119;-47
2021/08/08 10:23:13;;;;;;;3.03;2.72;;;;;;;18.98;66.72;100260.84;5040144;28;20539;-48
2021/08/08 10:25:40;;;;;;;2.95;2.67;;;;;;;18.97;66.58;100261.75;5040725;28;20120;-48
2021/08/08 10:28:07;;;;;;;7.47;3.00;;;;;;;18.98;66.50;100259.00;5043572;28;20388;-48
2021/08/08 10:30:33;;;;;;;2.97;2.72;;;;;;;19.00;66.60;100244.72;5023133;28;20132;-47
2021/08/08 10:33:01;;;;;;;4.30;2.95;;;;;;;19.00;66.68;100245.56;5011791;28;20036;-48
2021/08/08 10:35:35;;;;;;;4.20;2.78;;;;;;;18.99;67.06;100241.19;5049005;28;20071;-47
2021/08/08 10:38:01;;;;;;;3.50;2.88;;;;;;;18.99;66.89;100233.16;5044963;28;20017;-48
2021/08/08 10:40:31;;;;;;;2.55;2.40;;;;;;;19.00;66.78;100234.88;5043720;28;20032;-47
2021/08/08 10:43:01;;;;;;;3.38;2.78;;;;;;;18.99;66.87;100227.81;5031579;28;20024;-47
2021/08/08 10:45:34;;;;;;;2.72;2.50;;;;;;;19.00;66.87;100229.53;5044115;28;20418;-48
2021/08/08 10:48:09;;;;;;;2.90;2.70;;;;;;;19.01;66.78;100227.75;5048707;28;20032;-47
2021/08/08 10:50:46;;;;;;;2.63;2.45;;;;;;;19.01;66.38;100225.94;5049121;28;20029;-47
2021/08/08 10:53:25;;;;;;;2.53;2.42;;;;;;;19.00;66.82;100224.19;5046642;28;20029;-48
2021/08/08 10:56:08;;;;;;;2.80;2.60;;;;;;;19.01;67.02;100235.75;5039412;28;20021;-46
2021/08/08 10:58:35;;;;;;;3.00;2.70;;;;;;;19.01;66.61;100225.06;5038509;28;20051;-47
2021/08/08 11:01:00;;;;;;;3.05;2.75;;;;;;;19.02;66.71;100233.00;5023362;28;20375;-47
2021/08/08 11:03:25;;;;;;;3.53;3.25;;;;;;;19.05;66.41;100238.19;5041782;28;20025;-47
2021/08/08 11:05:51;;;;;;;2.70;2.50;;;;;;;19.02;66.31;100238.34;5039286;28;20024;-48
2021/08/08 11:08:17;;;;;;;2.95;2.75;;;;;;;19.02;66.32;100232.13;5030883;28;20150;-47
2021/08/08 11:10:43;;;;;;;3.50;3.10;;;;;;;18.98;66.41;100223.44;5032883;28;20037;-48
2021/08/08 11:13:26;;;;;;;3.08;2.60;;;;;;;19.01;66.02;100241.97;5038491;28;20024;-47
2021/08/08 11:15:52;;;;;;;3.10;2.80;;;;;;;19.03;65.97;100229.38;5035200;28;20051;-48
2021/08/08 11:18:18;;;;;;;3.47;3.17;;;;;;;19.04;65.74;100227.59;5041666;28;20033;-47
2021/08/08 11:20:44;;;;;;;2.95;2.70;;;;;;;19.04;65.74;100235.59;5021404;28;20044;-47
2021/08/08 11:23:12;;;;;;;2.97;2.70;;;;;;;19.02;65.91;100232.13;5036773;28;20029;-48
2021/08/08 11:25:40;;;;;;;3.05;2.75;;;;;;;19.03;66.12;100237.41;5038363;28;20484;-48
2021/08/08 11:28:06;;;;;;;3.22;3.00;;;;;;;19.05;66.31;100243.56;5036165;28;20041;-47
2021/08/08 11:30:45;;;;;;;2.78;2.58;;;;;;;19.07;66.56;100241.69;5042166;28;20028;-48